Terminal Aerodrome Forecast
Issued by NWS Mt. Holly, NJ

Home | Current Version | Previous Version | Text Only | Print | Product List | Glossary On
Versions: 1 2 3 4 5 6 7 8 9 10 11 12 13 14 15 16
000
FTUS41 KPHI 211700
TAFACY
TAF
KACY 211730Z 2118/2218 33008KT P6SM FEW030
     FM220100 00000KT P6SM FEW035 BKN250
     FM221300 04005KT P6SM BKN015 OVC120
     FM221700 08005KT 6SM -RA BKN025 OVC060=

USA.gov is the U.S. government's official web portal to all federal, state and local government web resources and services.